VRMM/MLE METAR and TAF weather

Enter ICAO airport designator
Station Type Date Time Source
VRMM METAR 2021/09/23 23:00 UTC NOAA

VRMM 232300Z 31014KT 9999 SCT018TCU BKN270 29/25 Q1008 TEMPO FEW018CB


Station Type Date Time Source
VRMM Decoded METAR 2021/09/23 23:00 UTC NOAA

Male, Maldives (VRMM) 04-12N 073-32E 2M
Sep 23, 2021 - 07:00 PM EDT / 2021.09.23 2300 UTC
Wind: from the NW (310 degrees) at 16 MPH (14 KT):0
Visibility: greater than 7 mile(s):0
Sky conditions: mostly cloudy
Weather: Cumulonimbus clouds, towering cumulus clouds observed
Temperature: 84 F (29 C)
Dew Point: 77 F (25 C)
Relative Humidity: 79%
Pressure (altimeter): 29.77 in. Hg (1008 hPa)
ob: VRMM 232300Z 31014KT 9999 SCT018TCU BKN270 29/25 Q1008 TEMPO FEW018CB
cycle: 23

Station Type Date Time Source
VRMM TAF 2021/09/23 18:27 UTC NOAA

TAF VRMM 231700Z 2318/2424 31015KT 9999 SCT018TCU
TEMPO 2318/2324 5000 SHRA FEW017CB

Example: see airport list